sensor_id;sensor_type;location;lat;lon;timestamp;temperature;humidity
24252;DHT22;12380;51.118;4.176;2023-06-22T00:01:58;19.20;99.90
24252;DHT22;12380;51.118;4.176;2023-06-22T00:04:26;19.20;99.90
24252;DHT22;12380;51.118;4.176;2023-06-22T00:06:54;19.20;99.90
24252;DHT22;12380;51.118;4.176;2023-06-22T00:09:22;19.20;99.90
24252;DHT22;12380;51.118;4.176;2023-06-22T00:11:48;19.10;99.90
24252;DHT22;12380;51.118;4.176;2023-06-22T00:14:15;19.10;99.90
24252;DHT22;12380;51.118;4.176;2023-06-22T00:16:43;19.10;99.90
24252;DHT22;12380;51.118;4.176;2023-06-22T00:19:09;19.10;99.90
24252;DHT22;12380;51.118;4.176;2023-06-22T00:21:36;19.20;99.90
24252;DHT22;12380;51.118;4.176;2023-06-22T00:24:04;19.20;99.90
24252;DHT22;12380;51.118;4.176;2023-06-22T00:26:31;19.10;99.90
24252;DHT22;12380;51.118;4.176;2023-06-22T00:28:57;19.00;99.90
24252;DHT22;12380;51.118;4.176;2023-06-22T00:31:22;18.90;99.90
24252;DHT22;12380;51.118;4.176;2023-06-22T00:33:48;18.90;99.90
24252;DHT22;12380;51.118;4.176;2023-06-22T00:36:16;18.90;99.90
24252;DHT22;12380;51.118;4.176;2023-06-22T00:38:45;18.90;99.90
24252;DHT22;12380;51.118;4.176;2023-06-22T00:41:11;18.90;99.90
24252;DHT22;12380;51.118;4.176;2023-06-22T00:43:39;18.90;99.90
24252;DHT22;12380;51.118;4.176;2023-06-22T00:46:07;18.80;99.90
24252;DHT22;12380;51.118;4.176;2023-06-22T00:48:35;18.80;99.90
24252;DHT22;12380;51.118;4.176;2023-06-22T00:51:02;18.80;99.90
24252;DHT22;12380;51.118;4.176;2023-06-22T00:53:28;18.70;99.90
24252;DHT22;12380;51.118;4.176;2023-06-22T00:55:53;18.80;99.90
24252;DHT22;12380;51.118;4.176;2023-06-22T00:58:19;18.70;99.90
24252;DHT22;12380;51.118;4.176;2023-06-22T01:00:47;18.60;99.90
24252;DHT22;12380;51.118;4.176;2023-06-22T01:03:12;18.70;99.90
24252;DHT22;12380;51.118;4.176;2023-06-22T01:05:38;18.70;99.90
24252;DHT22;12380;51.118;4.176;2023-06-22T01:08:23;18.80;99.90
24252;DHT22;12380;51.118;4.176;2023-06-22T01:11:03;18.70;99.90
24252;DHT22;12380;51.118;4.176;2023-06-22T01:13:37;18.60;99.90
24252;DHT22;12380;51.118;4.176;2023-06-22T01:16:08;18.60;99.90
24252;DHT22;12380;51.118;4.176;2023-06-22T01:18:37;18.50;99.90
24252;DHT22;12380;51.118;4.176;2023-06-22T01:21:05;18.50;99.90
24252;DHT22;12380;51.118;4.176;2023-06-22T01:23:45;18.40;99.90
24252;DHT22;12380;51.118;4.176;2023-06-22T01:26:19;18.50;99.90
24252;DHT22;12380;51.118;4.176;2023-06-22T01:28:47;18.50;99.90
24252;DHT22;12380;51.118;4.176;2023-06-22T01:31:17;18.40;99.90
24252;DHT22;12380;51.118;4.176;2023-06-22T01:33:44;18.60;99.90
24252;DHT22;12380;51.118;4.176;2023-06-22T01:36:10;18.50;99.90
24252;DHT22;12380;51.118;4.176;2023-06-22T01:38:36;18.50;99.90
24252;DHT22;12380;51.118;4.176;2023-06-22T01:41:02;18.50;99.90
24252;DHT22;12380;51.118;4.176;2023-06-22T01:43:29;18.50;99.90
24252;DHT22;12380;51.118;4.176;2023-06-22T01:45:55;18.50;99.90
24252;DHT22;12380;51.118;4.176;2023-06-22T01:48:24;18.50;99.90
24252;DHT22;12380;51.118;4.176;2023-06-22T01:50:51;18.40;99.90
24252;DHT22;12380;51.118;4.176;2023-06-22T01:53:17;18.30;99.90
24252;DHT22;12380;51.118;4.176;2023-06-22T01:55:43;18.30;99.90
24252;DHT22;12380;51.118;4.176;2023-06-22T01:58:08;18.30;99.90
24252;DHT22;12380;51.118;4.176;2023-06-22T02:00:36;18.40;99.90
24252;DHT22;12380;51.118;4.176;2023-06-22T02:03:05;18.40;99.90
24252;DHT22;12380;51.118;4.176;2023-06-22T02:05:34;18.50;99.90
24252;DHT22;12380;51.118;4.176;2023-06-22T02:08:07;18.40;99.90
24252;DHT22;12380;51.118;4.176;2023-06-22T02:10:34;18.30;99.90
24252;DHT22;12380;51.118;4.176;2023-06-22T02:13:01;18.30;99.90
24252;DHT22;12380;51.118;4.176;2023-06-22T02:15:28;18.40;99.90
24252;DHT22;12380;51.118;4.176;2023-06-22T02:17:53;18.30;99.90
24252;DHT22;12380;51.118;4.176;2023-06-22T02:20:19;18.30;99.90
24252;DHT22;12380;51.118;4.176;2023-06-22T02:22:45;18.20;99.90
24252;DHT22;12380;51.118;4.176;2023-06-22T02:25:13;18.30;99.90
24252;DHT22;12380;51.118;4.176;2023-06-22T02:27:39;18.30;99.90
24252;DHT22;12380;51.118;4.176;2023-06-22T02:30:07;18.30;99.90
24252;DHT22;12380;51.118;4.176;2023-06-22T02:32:32;18.40;99.90
24252;DHT22;12380;51.118;4.176;2023-06-22T02:34:59;18.40;99.90
24252;DHT22;12380;51.118;4.176;2023-06-22T02:37:26;18.40;99.90
24252;DHT22;12380;51.118;4.176;2023-06-22T02:39:54;18.40;99.90
24252;DHT22;12380;51.118;4.176;2023-06-22T02:42:20;18.40;99.90
24252;DHT22;12380;51.118;4.176;2023-06-22T02:44:47;18.30;99.90
24252;DHT22;12380;51.118;4.176;2023-06-22T02:47:12;18.30;99.90
24252;DHT22;12380;51.118;4.176;2023-06-22T02:49:38;18.40;99.90
24252;DHT22;12380;51.118;4.176;2023-06-22T02:52:04;18.40;99.90
24252;DHT22;12380;51.118;4.176;2023-06-22T02:54:29;18.40;99.90
24252;DHT22;12380;51.118;4.176;2023-06-22T02:56:55;18.40;99.90
24252;DHT22;12380;51.118;4.176;2023-06-22T02:59:20;18.30;99.90
24252;DHT22;12380;51.118;4.176;2023-06-22T03:01:49;18.40;99.90
24252;DHT22;12380;51.118;4.176;2023-06-22T03:04:15;18.40;99.90
24252;DHT22;12380;51.118;4.176;2023-06-22T03:06:41;18.30;99.90
24252;DHT22;12380;51.118;4.176;2023-06-22T03:09:06;18.40;99.90
24252;DHT22;12380;51.118;4.176;2023-06-22T03:11:33;18.40;99.90
24252;DHT22;12380;51.118;4.176;2023-06-22T03:13:59;18.30;99.90
24252;DHT22;12380;51.118;4.176;2023-06-22T03:16:25;18.30;99.90
24252;DHT22;12380;51.118;4.176;2023-06-22T03:18:50;18.30;99.90
24252;DHT22;12380;51.118;4.176;2023-06-22T03:21:19;18.20;99.90
24252;DHT22;12380;51.118;4.176;2023-06-22T03:23:44;18.20;99.90
24252;DHT22;12380;51.118;4.176;2023-06-22T03:26:10;18.10;99.90
24252;DHT22;12380;51.118;4.176;2023-06-22T03:28:37;18.10;99.90
24252;DHT22;12380;51.118;4.176;2023-06-22T03:31:05;18.00;99.90
24252;DHT22;12380;51.118;4.176;2023-06-22T03:33:32;18.00;99.90
24252;DHT22;12380;51.118;4.176;2023-06-22T03:35:57;17.90;99.90
24252;DHT22;12380;51.118;4.176;2023-06-22T03:38:23;17.90;99.90
24252;DHT22;12380;51.118;4.176;2023-06-22T03:40:51;18.00;99.90
24252;DHT22;12380;51.118;4.176;2023-06-22T03:43:16;17.90;99.90
24252;DHT22;12380;51.118;4.176;2023-06-22T03:45:42;17.90;99.90
24252;DHT22;12380;51.118;4.176;2023-06-22T03:48:11;17.80;99.90
24252;DHT22;12380;51.118;4.176;2023-06-22T03:50:38;17.80;99.90
24252;DHT22;12380;51.118;4.176;2023-06-22T03:53:04;17.80;99.90
24252;DHT22;12380;51.118;4.176;2023-06-22T03:55:30;17.80;99.90
24252;DHT22;12380;51.118;4.176;2023-06-22T03:57:55;17.90;99.90
24252;DHT22;12380;51.118;4.176;2023-06-22T04:00:22;18.00;99.90
24252;DHT22;12380;51.118;4.176;2023-06-22T04:02:48;17.80;99.90
24252;DHT22;12380;51.118;4.176;2023-06-22T04:05:14;17.80;99.90
24252;DHT22;12380;51.118;4.176;2023-06-22T04:07:39;17.80;99.90
24252;DHT22;12380;51.118;4.176;2023-06-22T04:10:07;17.90;99.90
24252;DHT22;12380;51.118;4.176;2023-06-22T04:12:33;17.90;99.90
24252;DHT22;12380;51.118;4.176;2023-06-22T04:14:59;17.90;99.90
24252;DHT22;12380;51.118;4.176;2023-06-22T04:17:24;18.00;99.90
24252;DHT22;12380;51.118;4.176;2023-06-22T04:19:50;18.00;99.90
24252;DHT22;12380;51.118;4.176;2023-06-22T04:22:16;18.10;99.90
24252;DHT22;12380;51.118;4.176;2023-06-22T04:24:44;18.00;99.90
24252;DHT22;12380;51.118;4.176;2023-06-22T04:27:09;18.10;99.90
24252;DHT22;12380;51.118;4.176;2023-06-22T04:29:37;18.10;99.90
24252;DHT22;12380;51.118;4.176;2023-06-22T04:32:05;18.20;99.90
24252;DHT22;12380;51.118;4.176;2023-06-22T04:34:33;18.30;99.90
24252;DHT22;12380;51.118;4.176;2023-06-22T04:37:01;18.30;99.90
24252;DHT22;12380;51.118;4.176;2023-06-22T04:39:27;18.40;99.90
24252;DHT22;12380;51.118;4.176;2023-06-22T04:41:53;18.50;99.90
24252;DHT22;12380;51.118;4.176;2023-06-22T04:44:18;18.50;99.90
24252;DHT22;12380;51.118;4.176;2023-06-22T04:46:50;18.60;99.90
24252;DHT22;12380;51.118;4.176;2023-06-22T04:49:19;18.70;99.90
24252;DHT22;12380;51.118;4.176;2023-06-22T04:51:45;18.70;99.90
24252;DHT22;12380;51.118;4.176;2023-06-22T04:54:13;18.80;99.90
24252;DHT22;12380;51.118;4.176;2023-06-22T04:56:39;18.90;99.90
24252;DHT22;12380;51.118;4.176;2023-06-22T04:59:06;19.00;99.90
24252;DHT22;12380;51.118;4.176;2023-06-22T05:01:38;19.10;99.90
24252;DHT22;12380;51.118;4.176;2023-06-22T05:04:03;19.30;99.90
24252;DHT22;12380;51.118;4.176;2023-06-22T05:06:32;19.40;99.90
24252;DHT22;12380;51.118;4.176;2023-06-22T05:08:58;19.40;99.90
24252;DHT22;12380;51.118;4.176;2023-06-22T05:11:25;19.50;99.90
24252;DHT22;12380;51.118;4.176;2023-06-22T05:13:51;19.60;99.90
24252;DHT22;12380;51.118;4.176;2023-06-22T05:16:17;19.80;99.90
24252;DHT22;12380;51.118;4.176;2023-06-22T05:18:42;20.00;99.90
24252;DHT22;12380;51.118;4.176;2023-06-22T05:21:08;20.10;99.90
24252;DHT22;12380;51.118;4.176;2023-06-22T05:23:34;20.30;99.90
24252;DHT22;12380;51.118;4.176;2023-06-22T05:26:02;20.20;99.90
24252;DHT22;12380;51.118;4.176;2023-06-22T05:28:28;20.20;99.90
24252;DHT22;12380;51.118;4.176;2023-06-22T05:30:53;20.20;99.90
24252;DHT22;12380;51.118;4.176;2023-06-22T05:33:19;20.30;99.90
24252;DHT22;12380;51.118;4.176;2023-06-22T05:35:44;20.30;99.90
24252;DHT22;12380;51.118;4.176;2023-06-22T05:38:10;20.40;99.90
24252;DHT22;12380;51.118;4.176;2023-06-22T05:40:36;20.60;99.90
24252;DHT22;12380;51.118;4.176;2023-06-22T05:43:01;20.50;99.90
24252;DHT22;12380;51.118;4.176;2023-06-22T05:45:27;20.70;99.90
24252;DHT22;12380;51.118;4.176;2023-06-22T05:47:55;20.80;99.90
24252;DHT22;12380;51.118;4.176;2023-06-22T05:50:21;21.10;99.90
24252;DHT22;12380;51.118;4.176;2023-06-22T05:52:46;21.20;99.90
24252;DHT22;12380;51.118;4.176;2023-06-22T05:55:12;21.40;99.90
24252;DHT22;12380;51.118;4.176;2023-06-22T05:57:38;21.60;99.90
24252;DHT22;12380;51.118;4.176;2023-06-22T06:00:03;21.70;99.90
24252;DHT22;12380;51.118;4.176;2023-06-22T06:02:33;21.80;99.90
24252;DHT22;12380;51.118;4.176;2023-06-22T06:04:59;21.80;99.90
24252;DHT22;12380;51.118;4.176;2023-06-22T06:07:28;21.90;99.90
24252;DHT22;12380;51.118;4.176;2023-06-22T06:09:53;22.00;99.90
24252;DHT22;12380;51.118;4.176;2023-06-22T06:12:19;22.10;99.90
24252;DHT22;12380;51.118;4.176;2023-06-22T06:14:44;22.30;99.90
24252;DHT22;12380;51.118;4.176;2023-06-22T06:17:10;22.40;99.90
24252;DHT22;12380;51.118;4.176;2023-06-22T06:19:36;22.50;99.90
24252;DHT22;12380;51.118;4.176;2023-06-22T06:22:01;22.60;99.90
24252;DHT22;12380;51.118;4.176;2023-06-22T06:24:27;22.60;99.90
24252;DHT22;12380;51.118;4.176;2023-06-22T06:26:52;22.70;99.90
24252;DHT22;12380;51.118;4.176;2023-06-22T06:29:18;22.70;99.90
24252;DHT22;12380;51.118;4.176;2023-06-22T06:31:44;22.80;99.90
24252;DHT22;12380;51.118;4.176;2023-06-22T06:34:09;23.00;99.90
24252;DHT22;12380;51.118;4.176;2023-06-22T06:36:37;23.10;99.90
24252;DHT22;12380;51.118;4.176;2023-06-22T06:39:03;23.40;99.90
24252;DHT22;12380;51.118;4.176;2023-06-22T06:41:30;23.30;99.90
24252;DHT22;12380;51.118;4.176;2023-06-22T06:43:56;23.40;99.90
24252;DHT22;12380;51.118;4.176;2023-06-22T06:46:24;23.30;99.90
24252;DHT22;12380;51.118;4.176;2023-06-22T06:48:50;23.30;99.90
24252;DHT22;12380;51.118;4.176;2023-06-22T06:51:15;23.20;99.90
24252;DHT22;12380;51.118;4.176;2023-06-22T06:53:41;23.30;99.90
24252;DHT22;12380;51.118;4.176;2023-06-22T06:56:06;23.30;99.90
24252;DHT22;12380;51.118;4.176;2023-06-22T06:58:32;23.20;99.90
24252;DHT22;12380;51.118;4.176;2023-06-22T07:00:58;23.20;99.90
24252;DHT22;12380;51.118;4.176;2023-06-22T07:03:23;23.20;99.90
24252;DHT22;12380;51.118;4.176;2023-06-22T07:05:51;23.50;99.90
24252;DHT22;12380;51.118;4.176;2023-06-22T07:08:17;23.70;99.90
24252;DHT22;12380;51.118;4.176;2023-06-22T07:10:42;23.60;99.90
24252;DHT22;12380;51.118;4.176;2023-06-22T07:13:08;23.50;99.90
24252;DHT22;12380;51.118;4.176;2023-06-22T07:15:33;23.50;99.90
24252;DHT22;12380;51.118;4.176;2023-06-22T07:17:59;23.40;99.90
24252;DHT22;12380;51.118;4.176;2023-06-22T07:20:27;23.30;99.90
24252;DHT22;12380;51.118;4.176;2023-06-22T07:22:53;23.30;99.90
24252;DHT22;12380;51.118;4.176;2023-06-22T07:25:20;23.30;99.90
24252;DHT22;12380;51.118;4.176;2023-06-22T07:28:06;23.30;99.90
24252;DHT22;12380;51.118;4.176;2023-06-22T07:30:32;23.20;99.90
24252;DHT22;12380;51.118;4.176;2023-06-22T07:32:57;23.20;99.90
24252;DHT22;12380;51.118;4.176;2023-06-22T07:35:24;23.40;99.90
24252;DHT22;12380;51.118;4.176;2023-06-22T07:37:49;23.30;99.90
24252;DHT22;12380;51.118;4.176;2023-06-22T07:40:15;23.30;99.90
24252;DHT22;12380;51.118;4.176;2023-06-22T07:42:43;23.50;99.90
24252;DHT22;12380;51.118;4.176;2023-06-22T07:45:09;23.50;99.90
24252;DHT22;12380;51.118;4.176;2023-06-22T07:47:37;23.70;99.90
24252;DHT22;12380;51.118;4.176;2023-06-22T07:50:03;23.70;99.90
24252;DHT22;12380;51.118;4.176;2023-06-22T07:52:29;23.60;99.90
24252;DHT22;12380;51.118;4.176;2023-06-22T07:54:54;23.90;99.90
24252;DHT22;12380;51.118;4.176;2023-06-22T07:57:20;23.90;99.90
24252;DHT22;12380;51.118;4.176;2023-06-22T07:59:48;23.80;99.90
24252;DHT22;12380;51.118;4.176;2023-06-22T08:02:17;23.90;99.90
24252;DHT22;12380;51.118;4.176;2023-06-22T08:04:42;23.80;99.90
24252;DHT22;12380;51.118;4.176;2023-06-22T08:07:08;23.90;99.90
24252;DHT22;12380;51.118;4.176;2023-06-22T08:09:36;24.00;99.90
24252;DHT22;12380;51.118;4.176;2023-06-22T08:12:02;24.00;99.90
24252;DHT22;12380;51.118;4.176;2023-06-22T08:14:29;23.80;99.90
24252;DHT22;12380;51.118;4.176;2023-06-22T08:16:55;23.90;99.90
24252;DHT22;12380;51.118;4.176;2023-06-22T08:19:20;23.80;99.90
24252;DHT22;12380;51.118;4.176;2023-06-22T08:21:46;23.90;99.90
24252;DHT22;12380;51.118;4.176;2023-06-22T08:24:12;24.10;99.90
24252;DHT22;12380;51.118;4.176;2023-06-22T08:26:38;24.10;99.90
24252;DHT22;12380;51.118;4.176;2023-06-22T08:29:03;24.10;99.90
24252;DHT22;12380;51.118;4.176;2023-06-22T08:31:30;24.10;99.90
24252;DHT22;12380;51.118;4.176;2023-06-22T08:33:58;23.90;99.90
24252;DHT22;12380;51.118;4.176;2023-06-22T08:36:23;24.10;99.90
24252;DHT22;12380;51.118;4.176;2023-06-22T08:38:49;23.90;99.90
24252;DHT22;12380;51.118;4.176;2023-06-22T08:41:16;23.90;99.90
24252;DHT22;12380;51.118;4.176;2023-06-22T08:43:43;23.90;99.90
24252;DHT22;12380;51.118;4.176;2023-06-22T08:46:09;24.00;99.90
24252;DHT22;12380;51.118;4.176;2023-06-22T08:48:35;24.10;99.90
24252;DHT22;12380;51.118;4.176;2023-06-22T08:51:00;24.10;99.90
24252;DHT22;12380;51.118;4.176;2023-06-22T08:53:26;24.10;99.90
24252;DHT22;12380;51.118;4.176;2023-06-22T08:55:52;24.10;99.90
24252;DHT22;12380;51.118;4.176;2023-06-22T08:58:17;24.10;99.90
24252;DHT22;12380;51.118;4.176;2023-06-22T09:00:44;24.00;99.90
24252;DHT22;12380;51.118;4.176;2023-06-22T09:03:09;24.10;99.90
24252;DHT22;12380;51.118;4.176;2023-06-22T09:05:36;24.10;99.90
24252;DHT22;12380;51.118;4.176;2023-06-22T09:08:02;24.00;99.90
24252;DHT22;12380;51.118;4.176;2023-06-22T09:10:28;23.80;99.90
24252;DHT22;12380;51.118;4.176;2023-06-22T09:12:53;23.80;99.90
24252;DHT22;12380;51.118;4.176;2023-06-22T09:15:19;23.70;99.90
24252;DHT22;12380;51.118;4.176;2023-06-22T09:17:45;23.60;99.90
24252;DHT22;12380;51.118;4.176;2023-06-22T09:20:12;23.70;99.90
24252;DHT22;12380;51.118;4.176;2023-06-22T09:22:38;23.60;99.90
24252;DHT22;12380;51.118;4.176;2023-06-22T09:25:06;23.70;99.90
24252;DHT22;12380;51.118;4.176;2023-06-22T09:27:35;23.80;99.90
24252;DHT22;12380;51.118;4.176;2023-06-22T09:30:00;24.00;99.90
24252;DHT22;12380;51.118;4.176;2023-06-22T09:32:26;23.90;99.90
24252;DHT22;12380;51.118;4.176;2023-06-22T09:34:52;23.90;99.90
24252;DHT22;12380;51.118;4.176;2023-06-22T09:37:18;23.90;99.90
24252;DHT22;12380;51.118;4.176;2023-06-22T09:39:44;23.90;99.90
24252;DHT22;12380;51.118;4.176;2023-06-22T09:42:12;23.90;99.90
24252;DHT22;12380;51.118;4.176;2023-06-22T09:44:40;24.00;99.90
24252;DHT22;12380;51.118;4.176;2023-06-22T09:47:06;23.70;99.90
24252;DHT22;12380;51.118;4.176;2023-06-22T09:49:31;23.70;99.90
24252;DHT22;12380;51.118;4.176;2023-06-22T09:51:57;23.60;99.90
24252;DHT22;12380;51.118;4.176;2023-06-22T09:54:23;23.70;99.90
24252;DHT22;12380;51.118;4.176;2023-06-22T09:56:51;23.60;99.90
24252;DHT22;12380;51.118;4.176;2023-06-22T09:59:16;23.40;99.90
24252;DHT22;12380;51.118;4.176;2023-06-22T10:01:42;23.40;99.90
24252;DHT22;12380;51.118;4.176;2023-06-22T10:04:08;23.40;99.90
24252;DHT22;12380;51.118;4.176;2023-06-22T10:06:33;23.30;99.90
24252;DHT22;12380;51.118;4.176;2023-06-22T10:09:01;23.50;99.90
24252;DHT22;12380;51.118;4.176;2023-06-22T10:11:29;23.50;99.90
24252;DHT22;12380;51.118;4.176;2023-06-22T10:13:56;23.50;99.90
24252;DHT22;12380;51.118;4.176;2023-06-22T10:16:23;23.30;99.90
24252;DHT22;12380;51.118;4.176;2023-06-22T10:18:52;23.30;99.90
24252;DHT22;12380;51.118;4.176;2023-06-22T10:21:17;23.20;99.90
24252;DHT22;12380;51.118;4.176;2023-06-22T10:23:43;23.30;99.90
24252;DHT22;12380;51.118;4.176;2023-06-22T10:26:08;23.10;99.90
24252;DHT22;12380;51.118;4.176;2023-06-22T10:28:34;23.00;99.90
24252;DHT22;12380;51.118;4.176;2023-06-22T10:31:00;22.70;99.90
24252;DHT22;12380;51.118;4.176;2023-06-22T10:33:25;22.60;99.90
24252;DHT22;12380;51.118;4.176;2023-06-22T10:35:51;22.60;99.90
24252;DHT22;12380;51.118;4.176;2023-06-22T10:38:19;22.20;99.90
24252;DHT22;12380;51.118;4.176;2023-06-22T10:40:44;22.00;99.90
24252;DHT22;12380;51.118;4.176;2023-06-22T10:43:10;21.90;99.90
24252;DHT22;12380;51.118;4.176;2023-06-22T10:45:35;21.90;99.90
24252;DHT22;12380;51.118;4.176;2023-06-22T10:48:01;21.90;99.90
24252;DHT22;12380;51.118;4.176;2023-06-22T10:50:26;21.60;99.90
24252;DHT22;12380;51.118;4.176;2023-06-22T10:52:53;21.70;99.90
24252;DHT22;12380;51.118;4.176;2023-06-22T10:55:19;21.70;99.90
24252;DHT22;12380;51.118;4.176;2023-06-22T10:57:44;21.80;99.90
24252;DHT22;12380;51.118;4.176;2023-06-22T11:00:13;21.90;99.90
24252;DHT22;12380;51.118;4.176;2023-06-22T11:02:39;21.70;99.90
24252;DHT22;12380;51.118;4.176;2023-06-22T11:05:05;21.60;99.90
24252;DHT22;12380;51.118;4.176;2023-06-22T11:07:30;21.70;99.90
24252;DHT22;12380;51.118;4.176;2023-06-22T11:09:56;21.80;99.90
24252;DHT22;12380;51.118;4.176;2023-06-22T11:12:22;21.30;99.90
24252;DHT22;12380;51.118;4.176;2023-06-22T11:14:47;21.40;99.90
24252;DHT22;12380;51.118;4.176;2023-06-22T11:17:15;21.20;99.90
24252;DHT22;12380;51.118;4.176;2023-06-22T11:19:41;21.10;99.90
24252;DHT22;12380;51.118;4.176;2023-06-22T11:22:06;21.10;99.90
24252;DHT22;12380;51.118;4.176;2023-06-22T11:24:32;20.90;99.90
24252;DHT22;12380;51.118;4.176;2023-06-22T11:26:57;21.00;99.90
24252;DHT22;12380;51.118;4.176;2023-06-22T11:29:25;20.60;99.90
24252;DHT22;12380;51.118;4.176;2023-06-22T11:31:51;20.50;99.90
24252;DHT22;12380;51.118;4.176;2023-06-22T11:34:16;20.40;99.90
24252;DHT22;12380;51.118;4.176;2023-06-22T11:36:44;20.50;99.90
24252;DHT22;12380;51.118;4.176;2023-06-22T11:39:10;20.40;99.90
24252;DHT22;12380;51.118;4.176;2023-06-22T11:41:38;20.50;99.90
24252;DHT22;12380;51.118;4.176;2023-06-22T11:44:04;20.60;99.90
24252;DHT22;12380;51.118;4.176;2023-06-22T11:46:29;20.60;99.90
24252;DHT22;12380;51.118;4.176;2023-06-22T11:48:55;20.70;99.90
24252;DHT22;12380;51.118;4.176;2023-06-22T11:51:21;20.70;99.90
24252;DHT22;12380;51.118;4.176;2023-06-22T11:53:46;20.60;99.90
24252;DHT22;12380;51.118;4.176;2023-06-22T11:56:12;20.50;99.90
24252;DHT22;12380;51.118;4.176;2023-06-22T11:58:37;20.70;99.90
24252;DHT22;12380;51.118;4.176;2023-06-22T12:01:03;20.70;99.90
24252;DHT22;12380;51.118;4.176;2023-06-22T12:03:28;20.50;99.90
24252;DHT22;12380;51.118;4.176;2023-06-22T12:05:55;20.50;99.90
24252;DHT22;12380;51.118;4.176;2023-06-22T12:08:20;20.60;99.90
24252;DHT22;12380;51.118;4.176;2023-06-22T12:10:46;20.70;99.90
24252;DHT22;12380;51.118;4.176;2023-06-22T12:13:12;20.80;99.90
24252;DHT22;12380;51.118;4.176;2023-06-22T12:15:38;20.60;99.90
24252;DHT22;12380;51.118;4.176;2023-06-22T12:18:03;20.60;99.90
24252;DHT22;12380;51.118;4.176;2023-06-22T12:20:31;20.60;99.90
24252;DHT22;12380;51.118;4.176;2023-06-22T12:22:57;20.70;99.90
24252;DHT22;12380;51.118;4.176;2023-06-22T12:25:25;20.80;99.90
24252;DHT22;12380;51.118;4.176;2023-06-22T12:27:52;21.00;99.90
24252;DHT22;12380;51.118;4.176;2023-06-22T12:30:19;20.90;99.90
24252;DHT22;12380;51.118;4.176;2023-06-22T12:32:44;20.90;99.90
24252;DHT22;12380;51.118;4.176;2023-06-22T12:35:10;21.00;99.90
24252;DHT22;12380;51.118;4.176;2023-06-22T12:37:40;21.00;99.90
24252;DHT22;12380;51.118;4.176;2023-06-22T12:40:06;21.20;99.90
24252;DHT22;12380;51.118;4.176;2023-06-22T12:42:31;21.20;99.90
24252;DHT22;12380;51.118;4.176;2023-06-22T12:44:57;21.20;99.90
24252;DHT22;12380;51.118;4.176;2023-06-22T12:47:22;21.40;99.90
24252;DHT22;12380;51.118;4.176;2023-06-22T12:49:50;21.30;99.90
24252;DHT22;12380;51.118;4.176;2023-06-22T12:52:16;21.50;99.90
24252;DHT22;12380;51.118;4.176;2023-06-22T12:54:44;21.50;99.90
24252;DHT22;12380;51.118;4.176;2023-06-22T12:57:09;21.60;99.90
24252;DHT22;12380;51.118;4.176;2023-06-22T12:59:35;21.70;99.90
24252;DHT22;12380;51.118;4.176;2023-06-22T13:02:01;21.60;99.90
24252;DHT22;12380;51.118;4.176;2023-06-22T13:04:26;21.50;99.90
24252;DHT22;12380;51.118;4.176;2023-06-22T13:06:54;21.50;99.90
24252;DHT22;12380;51.118;4.176;2023-06-22T13:09:20;21.40;99.90
24252;DHT22;12380;51.118;4.176;2023-06-22T13:11:45;21.50;99.90
24252;DHT22;12380;51.118;4.176;2023-06-22T13:14:11;21.60;99.90
24252;DHT22;12380;51.118;4.176;2023-06-22T13:16:37;21.50;99.90
24252;DHT22;12380;51.118;4.176;2023-06-22T13:19:04;21.50;99.90
24252;DHT22;12380;51.118;4.176;2023-06-22T13:21:30;21.50;99.90
24252;DHT22;12380;51.118;4.176;2023-06-22T13:23:56;21.50;99.90
24252;DHT22;12380;51.118;4.176;2023-06-22T13:26:21;21.60;99.90
24252;DHT22;12380;51.118;4.176;2023-06-22T13:28:47;21.60;99.90
24252;DHT22;12380;51.118;4.176;2023-06-22T13:31:13;21.50;99.90
24252;DHT22;12380;51.118;4.176;2023-06-22T13:33:38;21.40;99.90
24252;DHT22;12380;51.118;4.176;2023-06-22T13:36:06;21.30;99.90
24252;DHT22;12380;51.118;4.176;2023-06-22T13:38:32;21.30;99.90
24252;DHT22;12380;51.118;4.176;2023-06-22T13:40:58;21.20;99.90
24252;DHT22;12380;51.118;4.176;2023-06-22T13:43:26;21.10;99.90
24252;DHT22;12380;51.118;4.176;2023-06-22T13:45:52;21.10;99.90
24252;DHT22;12380;51.118;4.176;2023-06-22T13:48:17;21.10;99.90
24252;DHT22;12380;51.118;4.176;2023-06-22T13:50:43;21.10;99.90
24252;DHT22;12380;51.118;4.176;2023-06-22T13:53:11;21.00;99.90
24252;DHT22;12380;51.118;4.176;2023-06-22T13:55:36;20.90;99.90
24252;DHT22;12380;51.118;4.176;2023-06-22T13:58:02;20.70;99.90
24252;DHT22;12380;51.118;4.176;2023-06-22T14:00:28;20.60;99.90
24252;DHT22;12380;51.118;4.176;2023-06-22T14:02:53;20.50;99.90
24252;DHT22;12380;51.118;4.176;2023-06-22T14:05:19;20.40;99.90
24252;DHT22;12380;51.118;4.176;2023-06-22T14:07:47;20.60;99.90
24252;DHT22;12380;51.118;4.176;2023-06-22T14:10:13;20.70;99.90
24252;DHT22;12380;51.118;4.176;2023-06-22T14:12:38;20.60;99.90
24252;DHT22;12380;51.118;4.176;2023-06-22T14:15:04;20.60;99.90
24252;DHT22;12380;51.118;4.176;2023-06-22T14:17:30;20.70;99.90
24252;DHT22;12380;51.118;4.176;2023-06-22T14:19:55;20.60;99.90
24252;DHT22;12380;51.118;4.176;2023-06-22T14:22:21;20.60;99.90
24252;DHT22;12380;51.118;4.176;2023-06-22T14:24:48;20.40;99.90
24252;DHT22;12380;51.118;4.176;2023-06-22T14:27:14;20.50;99.90
24252;DHT22;12380;51.118;4.176;2023-06-22T14:29:39;20.50;99.90
24252;DHT22;12380;51.118;4.176;2023-06-22T14:32:05;20.40;99.90
24252;DHT22;12380;51.118;4.176;2023-06-22T14:34:32;20.40;99.90
24252;DHT22;12380;51.118;4.176;2023-06-22T14:36:57;20.40;99.90
24252;DHT22;12380;51.118;4.176;2023-06-22T14:39:23;20.40;99.90
24252;DHT22;12380;51.118;4.176;2023-06-22T14:41:48;20.50;99.90
24252;DHT22;12380;51.118;4.176;2023-06-22T14:44:14;20.50;99.90
24252;DHT22;12380;51.118;4.176;2023-06-22T14:46:40;20.50;99.90
24252;DHT22;12380;51.118;4.176;2023-06-22T14:49:05;20.60;99.90
24252;DHT22;12380;51.118;4.176;2023-06-22T14:51:31;20.70;99.90
24252;DHT22;12380;51.118;4.176;2023-06-22T14:53:56;20.70;99.90
24252;DHT22;12380;51.118;4.176;2023-06-22T14:56:22;20.70;99.90
24252;DHT22;12380;51.118;4.176;2023-06-22T14:58:47;20.70;99.90
24252;DHT22;12380;51.118;4.176;2023-06-22T15:01:14;20.80;99.90
24252;DHT22;12380;51.118;4.176;2023-06-22T15:03:39;20.90;99.90
24252;DHT22;12380;51.118;4.176;2023-06-22T15:06:05;20.80;99.90
24252;DHT22;12380;51.118;4.176;2023-06-22T15:08:31;20.90;99.90
24252;DHT22;12380;51.118;4.176;2023-06-22T15:10:59;20.90;99.90
24252;DHT22;12380;51.118;4.176;2023-06-22T15:13:31;20.80;99.90
24252;DHT22;12380;51.118;4.176;2023-06-22T15:16:00;20.80;99.90
24252;DHT22;12380;51.118;4.176;2023-06-22T15:18:26;20.80;99.90
24252;DHT22;12380;51.118;4.176;2023-06-22T15:20:52;20.80;99.90
24252;DHT22;12380;51.118;4.176;2023-06-22T15:23:18;20.80;99.90
24252;DHT22;12380;51.118;4.176;2023-06-22T15:25:44;20.90;99.90